createdAt,value
2022-12-03T00:01:27.790Z,100867.50
2022-12-03T00:03:57.630Z,100874.50
2022-12-03T00:06:32.927Z,100869.56
2022-12-03T00:09:03.931Z,100873.53
2022-12-03T00:11:36.056Z,100865.44
2022-12-03T00:14:05.539Z,100858.44
2022-12-03T00:16:35.000Z,100863.06
2022-12-03T00:19:04.486Z,100864.19
2022-12-03T00:21:34.018Z,100859.38
2022-12-03T00:24:03.500Z,100859.53
2022-12-03T00:26:32.936Z,100860.91
2022-12-03T00:29:04.972Z,100861.84
2022-12-03T00:31:34.500Z,100862.00
2022-12-03T00:34:04.025Z,100869.84
2022-12-03T00:36:33.741Z,100859.94
2022-12-03T00:39:03.213Z,100865.16
2022-12-03T00:41:32.667Z,100858.00
2022-12-03T00:44:04.699Z,100866.78
2022-12-03T00:46:34.210Z,100859.09
2022-12-03T00:49:03.710Z,100858.38
2022-12-03T00:51:33.164Z,100856.91
2022-12-03T00:54:02.621Z,100858.03
2022-12-03T00:56:32.309Z,100853.34
2022-12-03T00:59:01.789Z,100854.72
2022-12-03T01:01:33.873Z,100862.84
2022-12-03T01:04:03.330Z,100862.66
2022-12-03T01:06:32.776Z,100856.19
2022-12-03T01:09:02.256Z,100859.94
2022-12-03T01:11:41.452Z,100863.19
2022-12-03T01:14:12.660Z,100860.72
2022-12-03T01:16:44.763Z,100854.41
2022-12-03T01:19:15.999Z,100858.56
2022-12-03T01:21:45.603Z,100858.81
2022-12-03T01:24:15.188Z,100866.63
2022-12-03T01:26:44.663Z,100868.00
2022-12-03T01:29:14.356Z,100862.94
2022-12-03T01:31:58.882Z,100864.88
2022-12-03T01:34:28.351Z,100874.81
2022-12-03T01:36:57.826Z,100864.22
2022-12-03T01:39:27.337Z,100863.25
2022-12-03T01:41:57.890Z,100867.22
2022-12-03T01:44:28.594Z,100865.59
2022-12-03T01:47:01.658Z,100873.81
2022-12-03T01:49:32.878Z,100870.94
2022-12-03T01:52:02.358Z,100870.66
2022-12-03T01:54:35.892Z,100867.38
2022-12-03T01:57:05.343Z,100858.38
2022-12-03T01:59:35.789Z,100865.16
2022-12-03T02:02:13.890Z,100868.72
2022-12-03T02:04:43.479Z,100867.63
2022-12-03T02:07:21.125Z,100856.47
2022-12-03T02:09:50.588Z,100869.25
2022-12-03T02:12:21.311Z,100863.19
2022-12-03T02:14:51.029Z,100869.28
2022-12-03T02:17:23.450Z,100865.97
2022-12-03T02:19:52.912Z,100869.84
2022-12-03T02:22:30.632Z,100868.44
2022-12-03T02:25:12.542Z,100869.81
2022-12-03T02:27:42.025Z,100865.72
2022-12-03T02:30:12.601Z,100857.59
2022-12-03T02:32:42.112Z,100865.00
2022-12-03T02:35:16.150Z,100868.72
2022-12-03T02:37:45.600Z,100864.16
2022-12-03T02:40:18.840Z,100861.44
2022-12-03T02:42:45.816Z,100859.63
2022-12-03T02:45:17.455Z,100860.88
2022-12-03T02:47:47.732Z,100861.38
2022-12-03T02:50:18.025Z,100859.03
2022-12-03T02:52:47.714Z,100858.34
2022-12-03T02:55:19.773Z,100862.38
2022-12-03T02:57:49.695Z,100855.66
2022-12-03T03:00:19.742Z,100857.47
2022-12-03T03:02:49.685Z,100859.09
2022-12-03T03:05:19.271Z,100853.34
2022-12-03T03:07:48.760Z,100858.16
2022-12-03T03:10:22.638Z,100861.59
2022-12-03T03:12:52.201Z,100857.44
2022-12-03T03:15:21.947Z,100854.81
2022-12-03T03:17:51.426Z,100864.81
2022-12-03T03:20:21.064Z,100865.09
2022-12-03T03:22:50.697Z,100855.91
2022-12-03T03:25:24.837Z,100850.38
2022-12-03T03:27:54.370Z,100856.09
2022-12-03T03:30:24.014Z,100854.50
2022-12-03T03:32:53.568Z,100850.84
2022-12-03T03:35:23.170Z,100854.13
2022-12-03T03:37:53.535Z,100848.59
2022-12-03T03:40:25.712Z,100854.81
2022-12-03T03:42:55.245Z,100848.69
2022-12-03T03:45:29.095Z,100847.91
2022-12-03T03:47:59.248Z,100852.88
2022-12-03T03:50:28.854Z,100842.28
2022-12-03T03:52:58.628Z,100845.06
2022-12-03T03:55:30.752Z,100843.25
2022-12-03T03:58:00.337Z,100833.31
2022-12-03T04:00:29.891Z,100835.97
2022-12-03T04:02:59.461Z,100834.59
2022-12-03T04:05:29.245Z,100835.56
2022-12-03T04:07:58.901Z,100831.56
2022-12-03T04:10:43.558Z,100827.72
2022-12-03T04:13:13.125Z,100828.94
2022-12-03T04:15:42.700Z,100829.28
2022-12-03T04:18:24.711Z,100828.44
2022-12-03T04:21:14.275Z,100827.44
2022-12-03T04:23:41.206Z,100832.00
2022-12-03T04:26:25.805Z,100830.22
2022-12-03T04:28:55.386Z,100827.38
2022-12-03T04:31:37.402Z,100829.50
2022-12-03T04:34:19.517Z,100820.31
2022-12-03T04:36:49.136Z,100821.94
2022-12-03T04:39:18.719Z,100812.63
2022-12-03T04:41:50.869Z,100812.22
2022-12-03T04:44:32.872Z,100806.88
2022-12-03T04:47:02.474Z,100813.44
2022-12-03T04:49:32.015Z,100810.66
2022-12-03T04:52:01.561Z,100809.72
2022-12-03T04:54:31.255Z,100808.88
2022-12-03T04:57:03.421Z,100815.75
2022-12-03T04:59:33.011Z,100813.16
2022-12-03T05:02:02.668Z,100822.06
2022-12-03T05:04:32.209Z,100826.75
2022-12-03T05:07:01.796Z,100825.66
2022-12-03T05:09:31.365Z,100834.28
2022-12-03T05:12:03.992Z,100835.13
2022-12-03T05:14:33.522Z,100830.31
2022-12-03T05:17:03.175Z,100826.31
2022-12-03T05:19:45.068Z,100829.53
2022-12-03T05:22:14.692Z,100831.59
2022-12-03T05:24:44.246Z,100830.78
2022-12-03T05:27:21.720Z,100831.53
2022-12-03T05:29:53.183Z,100826.56
2022-12-03T05:32:22.765Z,100827.16
2022-12-03T05:34:52.805Z,100830.44
2022-12-03T05:37:22.657Z,100832.38
2022-12-03T05:39:52.340Z,100828.22
2022-12-03T05:42:36.954Z,100833.84
2022-12-03T05:45:07.246Z,100826.75
2022-12-03T05:47:36.830Z,100821.34
2022-12-03T05:50:06.957Z,100826.69
2022-12-03T05:52:36.542Z,100827.66
2022-12-03T05:55:06.674Z,100824.94
2022-12-03T05:57:38.838Z,100821.38
2022-12-03T06:00:10.138Z,100825.25
2022-12-03T06:02:39.790Z,100832.25
2022-12-03T06:05:10.188Z,100817.75
2022-12-03T06:07:39.845Z,100824.97
2022-12-03T06:10:11.035Z,100822.09
2022-12-03T06:12:43.236Z,100826.63
2022-12-03T06:15:13.526Z,100827.72
2022-12-03T06:17:43.077Z,100817.66
2022-12-03T06:20:13.799Z,100813.56
2022-12-03T06:22:43.424Z,100815.91
2022-12-03T06:25:12.975Z,100812.88
2022-12-03T06:27:45.154Z,100808.00
2022-12-03T06:30:15.713Z,100805.97
2022-12-03T06:32:45.278Z,100803.84
2022-12-03T06:35:14.834Z,100801.38
2022-12-03T06:37:44.342Z,100805.88
2022-12-03T06:40:16.798Z,100806.81
2022-12-03T06:42:48.992Z,100810.91
2022-12-03T06:45:18.566Z,100803.84
2022-12-03T06:47:48.154Z,100810.75
2022-12-03T06:50:17.704Z,100809.84
2022-12-03T06:52:47.250Z,100806.94
2022-12-03T06:55:16.933Z,100804.75
2022-12-03T06:57:49.079Z,100813.09
2022-12-03T07:00:19.184Z,100809.91
2022-12-03T07:02:48.802Z,100808.16
2022-12-03T07:05:18.561Z,100804.31
2022-12-03T07:07:52.188Z,100810.59
2022-12-03T07:10:22.153Z,100808.84
2022-12-03T07:12:54.320Z,100815.72
2022-12-03T07:15:23.959Z,100806.19
2022-12-03T07:17:53.735Z,100804.06
2022-12-03T07:20:23.289Z,100810.19
2022-12-03T07:22:52.861Z,100813.41
2022-12-03T07:25:23.757Z,100806.84
2022-12-03T07:27:58.518Z,100811.91
2022-12-03T07:30:28.143Z,100813.31
2022-12-03T07:32:57.672Z,100812.66
2022-12-03T07:35:27.213Z,100811.66
2022-12-03T07:37:56.718Z,100805.56
2022-12-03T07:40:26.173Z,100807.44
2022-12-03T07:42:58.309Z,100800.75
2022-12-03T07:45:27.911Z,100806.47
2022-12-03T07:47:57.461Z,100810.91
2022-12-03T07:50:28.352Z,100811.16
2022-12-03T07:52:57.954Z,100813.59
2022-12-03T07:55:27.564Z,100813.00
2022-12-03T07:57:59.702Z,100808.22
2022-12-03T08:00:29.404Z,100804.94
2022-12-03T08:02:59.056Z,100806.25
2022-12-03T08:05:29.750Z,100804.56
2022-12-03T08:07:59.613Z,100802.50
2022-12-03T08:10:29.415Z,100799.81
2022-12-03T08:13:02.164Z,100803.34
2022-12-03T08:15:37.286Z,100806.28
2022-12-03T08:18:14.861Z,100815.91
2022-12-03T08:20:45.406Z,100813.59
2022-12-03T08:23:16.544Z,100812.19
2022-12-03T08:25:46.187Z,100820.59
2022-12-03T08:28:21.612Z,100825.72
2022-12-03T08:30:58.966Z,100823.22
2022-12-03T08:33:29.595Z,100818.69
2022-12-03T08:35:59.148Z,100826.06
2022-12-03T08:38:28.702Z,100820.50
2022-12-03T08:40:58.216Z,100824.47
2022-12-03T08:43:31.111Z,100815.50
2022-12-03T08:46:01.002Z,100817.97
2022-12-03T08:48:32.821Z,100816.47
2022-12-03T08:51:04.737Z,100818.97
2022-12-03T08:53:36.066Z,100822.81
2022-12-03T08:56:07.288Z,100824.47
2022-12-03T08:58:41.134Z,100817.31
2022-12-03T09:01:41.228Z,100826.28
2022-12-03T09:04:24.520Z,100820.06
2022-12-03T09:06:54.375Z,100823.66
2022-12-03T09:09:24.101Z,100822.16
2022-12-03T09:11:53.951Z,100822.81
2022-12-03T09:14:26.219Z,100825.44
2022-12-03T09:16:56.753Z,100837.66
2022-12-03T09:19:26.760Z,100822.28
2022-12-03T09:21:56.438Z,100828.47
2022-12-03T09:24:26.028Z,100824.00
2022-12-03T09:26:55.589Z,100822.50
2022-12-03T09:29:27.729Z,100815.16
2022-12-03T09:31:57.302Z,100816.69
2022-12-03T09:34:26.887Z,100818.25
2022-12-03T09:36:56.503Z,100808.34
2022-12-03T09:39:26.264Z,100802.78
2022-12-03T09:41:55.785Z,100793.66
2022-12-03T09:44:27.912Z,100795.19
2022-12-03T09:47:00.007Z,100786.66
2022-12-03T09:49:29.793Z,100793.09
2022-12-03T09:51:59.562Z,100778.88
2022-12-03T09:54:30.050Z,100779.78
2022-12-03T09:57:00.375Z,100773.97
2022-12-03T09:59:33.539Z,100778.75
2022-12-03T10:02:03.337Z,100772.03
2022-12-03T10:04:32.953Z,100775.94
2022-12-03T10:07:02.630Z,100769.59
2022-12-03T10:09:32.419Z,100767.94
2022-12-03T10:12:01.976Z,100764.75
2022-12-03T10:14:34.181Z,100771.88
2022-12-03T10:17:03.814Z,100763.00
2022-12-03T10:19:35.573Z,100768.53
2022-12-03T10:22:05.294Z,100768.09
2022-12-03T10:24:35.330Z,100763.38
2022-12-03T10:27:05.677Z,100757.44
2022-12-03T10:29:38.366Z,100756.56
2022-12-03T10:32:09.203Z,100754.88
2022-12-03T10:34:39.849Z,100745.88
2022-12-03T10:37:17.279Z,100745.66
2022-12-03T10:39:56.903Z,100735.31
2022-12-03T10:42:26.603Z,100732.91
2022-12-03T10:45:20.811Z,100731.88
2022-12-03T10:48:07.037Z,100727.69
2022-12-03T10:50:36.587Z,100727.22
2022-12-03T10:53:06.118Z,100731.06
2022-12-03T10:55:38.793Z,100733.22
2022-12-03T10:58:08.938Z,100731.28
2022-12-03T11:00:41.164Z,100730.56
2022-12-03T11:03:15.863Z,100722.66
2022-12-03T11:05:45.473Z,100718.06
2022-12-03T11:08:19.149Z,100718.28
2022-12-03T11:10:48.935Z,100714.56
2022-12-03T11:13:48.057Z,100712.38
2022-12-03T11:17:12.878Z,100714.63
2022-12-03T11:19:52.438Z,100714.19
2022-12-03T11:22:46.933Z,100712.97
2022-12-03T11:25:58.323Z,100721.44
2022-12-03T11:28:34.096Z,100716.09
2022-12-03T11:31:11.733Z,100704.31
2022-12-03T11:33:44.658Z,100713.34
2022-12-03T11:36:36.425Z,100707.84
2022-12-03T11:39:10.714Z,100695.91
2022-12-03T11:41:40.311Z,100695.50
2022-12-03T11:44:31.929Z,100690.09
2022-12-03T11:47:02.827Z,100693.56
2022-12-03T11:49:53.423Z,100687.06
2022-12-03T11:52:28.864Z,100688.31
2022-12-03T11:55:01.940Z,100680.53
2022-12-03T11:57:39.716Z,100676.28
2022-12-03T12:00:23.388Z,100668.28
2022-12-03T12:02:53.549Z,100668.38
2022-12-03T12:05:26.146Z,100662.16
2022-12-03T12:07:58.698Z,100654.94
2022-12-03T12:10:41.939Z,100650.78
2022-12-03T12:13:59.092Z,100648.78
2022-12-03T12:16:47.637Z,100645.09
2022-12-03T12:19:52.696Z,100649.66
2022-12-03T12:22:32.465Z,100643.06
2022-12-03T12:25:04.862Z,100643.16
2022-12-03T12:27:36.488Z,100631.56
2022-12-03T12:30:08.336Z,100634.97
2022-12-03T12:32:48.596Z,100639.31
2022-12-03T12:35:20.246Z,100638.97
2022-12-03T12:37:58.949Z,100641.19
2022-12-03T12:40:34.155Z,100639.72
2022-12-03T12:43:11.575Z,100637.91
2022-12-03T12:45:42.938Z,100632.22
2022-12-03T12:48:24.842Z,100636.53
2022-12-03T12:50:56.800Z,100637.75
2022-12-03T12:53:27.209Z,100637.44
2022-12-03T12:56:00.360Z,100638.38
2022-12-03T12:58:32.658Z,100638.44
2022-12-03T13:01:03.523Z,100641.66
2022-12-03T13:03:35.632Z,100639.41
2022-12-03T13:06:05.427Z,100634.34
2022-12-03T13:08:36.424Z,100628.94
2022-12-03T13:11:08.882Z,100627.59
2022-12-03T13:13:44.018Z,100629.00
2022-12-03T13:16:14.929Z,100630.81
2022-12-03T13:18:47.860Z,100619.59
2022-12-03T13:21:23.248Z,100621.88
2022-12-03T13:23:53.991Z,100616.25
2022-12-03T13:26:37.732Z,100619.00
2022-12-03T13:29:10.039Z,100624.16
2022-12-03T13:31:43.708Z,100619.28
2022-12-03T13:34:15.065Z,100612.94
2022-12-03T13:36:45.618Z,100619.59
2022-12-03T13:39:17.048Z,100613.84
2022-12-03T13:42:01.636Z,100600.97
2022-12-03T13:44:31.612Z,100607.28
2022-12-03T13:47:02.799Z,100604.28
2022-12-03T13:49:32.412Z,100603.00
2022-12-03T13:52:01.970Z,100597.03
2022-12-03T13:54:32.452Z,100602.19
2022-12-03T13:57:05.968Z,100601.13
2022-12-03T13:59:35.584Z,100605.75
2022-12-03T14:02:05.211Z,100604.66
2022-12-03T14:04:35.057Z,100603.03
2022-12-03T14:07:04.591Z,100608.78
2022-12-03T14:09:34.221Z,100606.91
2022-12-03T14:12:19.282Z,100609.09
2022-12-03T14:14:48.839Z,100599.97
2022-12-03T14:17:18.452Z,100594.88
2022-12-03T14:19:48.002Z,100600.41
2022-12-03T14:22:19.324Z,100593.56
2022-12-03T14:24:48.901Z,100593.56
2022-12-03T14:27:20.978Z,100593.16
2022-12-03T14:29:50.518Z,100592.78
2022-12-03T14:32:20.069Z,100600.78
2022-12-03T14:34:49.634Z,100598.34
2022-12-03T14:37:19.098Z,100597.53
2022-12-03T14:39:48.648Z,100599.19
2022-12-03T14:42:21.035Z,100598.38
2022-12-03T14:44:51.291Z,100602.53
2022-12-03T14:47:22.588Z,100589.69
2022-12-03T14:49:52.754Z,100589.56
2022-12-03T14:52:22.704Z,100604.59
2022-12-03T14:54:52.240Z,100603.66
2022-12-03T14:57:24.366Z,100597.06
2022-12-03T14:59:54.382Z,100593.44
2022-12-03T15:02:24.256Z,100594.66
2022-12-03T15:04:53.877Z,100597.31
2022-12-03T15:07:23.480Z,100595.69
2022-12-03T15:09:53.370Z,100599.34
2022-12-03T15:12:25.814Z,100596.34
2022-12-03T15:14:55.350Z,100601.03
2022-12-03T15:17:31.334Z,100600.91
2022-12-03T15:20:01.677Z,100606.06
2022-12-03T15:22:31.169Z,100601.06
2022-12-03T15:25:02.521Z,100608.44
2022-12-03T15:27:34.646Z,100602.47
2022-12-03T15:30:04.183Z,100607.50
2022-12-03T15:32:33.739Z,100601.28
2022-12-03T15:35:03.317Z,100601.28
2022-12-03T15:37:32.843Z,100595.38
2022-12-03T15:40:02.323Z,100602.41
2022-12-03T15:42:34.392Z,100600.69
2022-12-03T15:45:03.899Z,100597.69
2022-12-03T15:47:33.715Z,100586.03
2022-12-03T15:50:03.186Z,100587.84
2022-12-03T15:52:32.620Z,100589.34
2022-12-03T15:55:02.128Z,100588.22
2022-12-03T15:57:34.161Z,100590.97
2022-12-03T16:00:03.717Z,100592.56
2022-12-03T16:02:34.004Z,100595.22
2022-12-03T16:05:03.727Z,100596.66
2022-12-03T16:07:33.293Z,100595.09
2022-12-03T16:10:02.924Z,100604.28
2022-12-03T16:12:35.053Z,100603.97
2022-12-03T16:15:04.530Z,100608.25
2022-12-03T16:17:33.961Z,100611.75
2022-12-03T16:20:03.493Z,100616.53
2022-12-03T16:22:32.933Z,100609.13
2022-12-03T16:25:03.261Z,100606.66
2022-12-03T16:27:37.077Z,100607.94
2022-12-03T16:30:07.560Z,100604.28
2022-12-03T16:32:37.271Z,100599.28
2022-12-03T16:35:07.117Z,100605.56
2022-12-03T16:37:36.582Z,100600.31
2022-12-03T16:40:06.364Z,100592.47
2022-12-03T16:42:39.114Z,100593.44
2022-12-03T16:45:22.692Z,100588.88
2022-12-03T16:47:52.288Z,100590.97
2022-12-03T16:50:29.072Z,100587.31
2022-12-03T16:52:59.541Z,100591.50
2022-12-03T16:55:29.109Z,100591.88
2022-12-03T16:58:01.194Z,100601.22
2022-12-03T17:00:31.112Z,100590.38
2022-12-03T17:03:00.619Z,100595.19
2022-12-03T17:05:30.150Z,100592.25
2022-12-03T17:07:59.639Z,100592.56
2022-12-03T17:10:29.229Z,100589.94
2022-12-03T17:13:09.229Z,100592.94
2022-12-03T17:15:39.790Z,100588.28
2022-12-03T17:18:09.489Z,100592.53
2022-12-03T17:20:38.996Z,100585.13
2022-12-03T17:23:08.475Z,100582.66
2022-12-03T17:25:38.008Z,100587.44
2022-12-03T17:28:10.114Z,100588.34
2022-12-03T17:30:39.610Z,100584.00
2022-12-03T17:33:09.038Z,100584.03
2022-12-03T17:35:38.575Z,100586.53
2022-12-03T17:38:09.106Z,100577.69
2022-12-03T17:40:38.921Z,100575.94
2022-12-03T17:43:11.023Z,100576.88
2022-12-03T17:45:40.662Z,100571.56
2022-12-03T17:48:10.314Z,100574.66
2022-12-03T17:50:39.798Z,100563.31
2022-12-03T17:53:10.530Z,100553.31
2022-12-03T17:55:44.703Z,100562.94
2022-12-03T17:58:17.245Z,100558.09
2022-12-03T18:00:46.963Z,100557.06
2022-12-03T18:03:16.426Z,100550.63
2022-12-03T18:05:45.908Z,100554.88
2022-12-03T18:08:15.457Z,100546.88
2022-12-03T18:10:44.915Z,100546.50
2022-12-03T18:13:16.958Z,100560.13
2022-12-03T18:15:46.458Z,100563.69
2022-12-03T18:18:16.001Z,100560.03
2022-12-03T18:20:45.757Z,100568.03
2022-12-03T18:23:15.222Z,100568.47
2022-12-03T18:25:44.665Z,100564.16
2022-12-03T18:28:16.689Z,100565.56
2022-12-03T18:30:52.007Z,100558.03
2022-12-03T18:33:23.371Z,100555.72
2022-12-03T18:35:55.429Z,100558.53
2022-12-03T18:38:24.974Z,100555.28
2022-12-03T18:40:54.441Z,100546.06
2022-12-03T18:43:27.986Z,100552.13
2022-12-03T18:45:57.456Z,100547.03
2022-12-03T18:48:27.544Z,100547.09
2022-12-03T18:50:57.007Z,100550.03
2022-12-03T18:53:26.503Z,100552.66
2022-12-03T18:55:56.649Z,100553.53
2022-12-03T18:58:28.703Z,100535.84
2022-12-03T19:00:58.266Z,100541.97
2022-12-03T19:03:27.851Z,100547.34
2022-12-03T19:05:57.332Z,100547.63
2022-12-03T19:08:26.952Z,100540.25
2022-12-03T19:10:59.684Z,100544.22
2022-12-03T19:13:31.741Z,100550.69
2022-12-03T19:16:04.237Z,100539.59
2022-12-03T19:18:33.735Z,100536.19
2022-12-03T19:21:03.247Z,100543.31
2022-12-03T19:23:32.722Z,100534.19
2022-12-03T19:26:03.033Z,100539.72
2022-12-03T19:28:35.223Z,100533.91
2022-12-03T19:31:05.852Z,100535.69
2022-12-03T19:33:35.696Z,100532.53
2022-12-03T19:36:05.651Z,100535.09
2022-12-03T19:38:35.184Z,100525.44
2022-12-03T19:41:06.374Z,100529.66
2022-12-03T19:43:38.841Z,100527.97
2022-12-03T19:46:09.430Z,100523.97
2022-12-03T19:48:39.837Z,100520.81
2022-12-03T19:51:33.145Z,100514.38
2022-12-03T19:53:59.297Z,100511.38
2022-12-03T19:56:30.345Z,100519.47
2022-12-03T19:59:02.747Z,100523.19
2022-12-03T20:01:33.311Z,100515.69
2022-12-03T20:04:03.475Z,100523.22
2022-12-03T20:06:35.488Z,100521.06
2022-12-03T20:09:07.793Z,100520.22
2022-12-03T20:11:37.616Z,100521.56
2022-12-03T20:14:10.563Z,100515.50
2022-12-03T20:16:40.173Z,100518.22
2022-12-03T20:19:10.308Z,100533.66
2022-12-03T20:21:39.972Z,100531.72
2022-12-03T20:24:10.099Z,100536.88
2022-12-03T20:26:39.596Z,100532.69
2022-12-03T20:29:11.640Z,100529.41
2022-12-03T20:31:41.222Z,100533.00
2022-12-03T20:34:10.743Z,100528.56
2022-12-03T20:36:40.205Z,100530.31
2022-12-03T20:39:10.055Z,100537.41
2022-12-03T20:41:42.245Z,100528.16
2022-12-03T20:44:14.327Z,100529.88
2022-12-03T20:46:44.105Z,100533.53
2022-12-03T20:49:13.654Z,100527.69
2022-12-03T20:51:43.580Z,100523.81
2022-12-03T20:54:13.081Z,100523.59
2022-12-03T20:56:42.564Z,100524.41
2022-12-03T20:59:16.530Z,100525.31
2022-12-03T21:01:46.145Z,100528.06
2022-12-03T21:04:16.211Z,100519.31
2022-12-03T21:06:45.665Z,100515.13
2022-12-03T21:09:15.314Z,100514.63
2022-12-03T21:11:44.786Z,100511.72
2022-12-03T21:14:16.855Z,100509.25
2022-12-03T21:19:38.653Z,100505.66
2022-12-03T21:22:08.294Z,100498.94
2022-12-03T21:24:37.788Z,100494.78
2022-12-03T21:27:07.250Z,100495.00
2022-12-03T21:29:39.458Z,100493.25
2022-12-03T21:32:08.924Z,100500.00
2022-12-03T21:34:38.378Z,100494.75
2022-12-03T21:37:07.856Z,100502.63
2022-12-03T21:39:37.425Z,100496.41
2022-12-03T21:42:33.909Z,100496.31
2022-12-03T21:44:59.337Z,100500.00
2022-12-03T21:47:33.474Z,100492.91
2022-12-03T21:50:07.134Z,100488.34
2022-12-03T21:52:36.731Z,100490.28
2022-12-03T21:55:06.367Z,100501.16
2022-12-03T21:57:37.849Z,100496.03
2022-12-03T22:00:11.376Z,100502.75
2022-12-03T22:02:41.182Z,100499.06
2022-12-03T22:05:11.374Z,100502.16
2022-12-03T22:07:41.309Z,100506.78
2022-12-03T22:10:12.474Z,100501.69
2022-12-03T22:12:42.316Z,100493.41
2022-12-03T22:15:18.803Z,100490.19
2022-12-03T22:17:49.078Z,100499.44
2022-12-03T22:20:18.665Z,100502.44
2022-12-03T22:22:48.146Z,100495.78
2022-12-03T22:25:17.853Z,100502.81
2022-12-03T22:27:47.300Z,100496.97
2022-12-03T22:30:19.567Z,100497.06
2022-12-03T22:32:49.022Z,100499.63
2022-12-03T22:35:18.584Z,100503.03
2022-12-03T22:37:48.037Z,100499.25
2022-12-03T22:40:17.926Z,100494.91
2022-12-03T22:42:50.975Z,100491.97
2022-12-03T22:45:23.303Z,100482.28
2022-12-03T22:47:52.728Z,100494.59
2022-12-03T22:50:22.283Z,100488.41
2022-12-03T22:52:51.745Z,100492.91
2022-12-03T22:55:21.222Z,100493.31
2022-12-03T22:57:50.690Z,100489.97
2022-12-03T23:00:33.085Z,100489.69
2022-12-03T23:03:02.642Z,100486.78
2022-12-03T23:05:37.000Z,100484.97
2022-12-03T23:08:06.735Z,100473.84
2022-12-03T23:10:36.824Z,100472.66
2022-12-03T23:13:06.477Z,100460.22
2022-12-03T23:15:38.637Z,100461.66
2022-12-03T23:18:08.266Z,100462.41
2022-12-03T23:20:37.735Z,100460.81
2022-12-03T23:23:07.199Z,100457.78
2022-12-03T23:25:37.342Z,100454.84
2022-12-03T23:28:06.876Z,100448.75
2022-12-03T23:30:40.369Z,100456.00
2022-12-03T23:33:09.838Z,100440.91
2022-12-03T23:35:39.290Z,100444.09
2022-12-03T23:38:08.721Z,100439.31
2022-12-03T23:40:39.599Z,100434.31
2022-12-03T23:43:12.045Z,100429.81
2022-12-03T23:45:44.352Z,100429.78
2022-12-03T23:48:13.842Z,100422.13
2022-12-03T23:50:43.296Z,100422.31
2022-12-03T23:53:12.764Z,100422.84
2022-12-03T23:55:42.508Z,100423.09
2022-12-03T23:58:11.954Z,100423.75
